createdAt,value
2024-05-09T00:00:29.740Z,162.30
2024-05-09T00:01:22.194Z,161.24
2024-05-09T00:02:21.168Z,162.38
2024-05-09T00:03:21.199Z,160.96
2024-05-09T00:04:21.163Z,162.16
2024-05-09T00:05:21.363Z,161.18
2024-05-09T00:06:21.150Z,162.75
2024-05-09T00:07:21.134Z,162.79
2024-05-09T00:08:21.210Z,161.29
2024-05-09T00:09:21.154Z,162.57
2024-05-09T00:10:25.613Z,160.62
2024-05-09T00:11:22.270Z,160.71
2024-05-09T00:12:21.786Z,161.09
2024-05-09T00:13:21.176Z,160.65
2024-05-09T00:14:21.240Z,161.03
2024-05-09T00:15:21.135Z,162.52
2024-05-09T00:16:21.178Z,161.83
2024-05-09T00:17:21.770Z,161.87
2024-05-09T00:18:21.411Z,160.42
2024-05-09T00:19:21.321Z,162.05
2024-05-09T00:20:28.081Z,160.67
2024-05-09T00:21:22.177Z,160.80
2024-05-09T00:22:21.172Z,160.80
2024-05-09T00:23:21.246Z,161.16
2024-05-09T00:24:21.187Z,163.07
2024-05-09T00:25:21.194Z,161.18
2024-05-09T00:26:21.200Z,161.85
2024-05-09T00:27:21.641Z,161.07
2024-05-09T00:28:21.183Z,161.82
2024-05-09T00:29:21.270Z,161.29
2024-05-09T00:30:28.227Z,160.74
2024-05-09T00:31:22.175Z,160.85
2024-05-09T00:32:21.526Z,160.87
2024-05-09T00:33:21.663Z,161.02
2024-05-09T00:34:21.401Z,162.47
2024-05-09T00:35:21.317Z,161.48
2024-05-09T00:36:21.210Z,162.00
2024-05-09T00:37:21.236Z,162.54
2024-05-09T00:38:21.355Z,160.03
2024-05-09T00:39:21.213Z,160.61
2024-05-09T00:40:30.822Z,159.88
2024-05-09T00:41:22.229Z,160.04
2024-05-09T00:42:21.248Z,160.23
2024-05-09T00:43:21.227Z,160.80
2024-05-09T00:44:21.261Z,161.46
2024-05-09T00:45:21.231Z,162.18
2024-05-09T00:46:21.223Z,162.31
2024-05-09T00:47:21.452Z,162.91
2024-05-09T00:48:21.752Z,162.54
2024-05-09T00:49:21.466Z,161.58
2024-05-09T00:50:29.444Z,162.45
2024-05-09T00:51:22.311Z,162.49
2024-05-09T00:52:21.222Z,162.62
2024-05-09T00:53:21.426Z,162.53
2024-05-09T00:54:21.231Z,160.96
2024-05-09T00:55:21.255Z,161.77
2024-05-09T00:56:21.271Z,160.17
2024-05-09T00:57:21.235Z,162.39
2024-05-09T00:58:21.260Z,161.03
2024-05-09T00:59:21.402Z,161.00
2024-05-09T01:00:27.329Z,161.21
2024-05-09T01:01:22.271Z,161.34
2024-05-09T01:02:21.403Z,160.95
2024-05-09T01:03:21.734Z,160.84
2024-05-09T01:04:21.300Z,162.71
2024-05-09T01:05:21.259Z,161.80
2024-05-09T01:06:21.275Z,161.16
2024-05-09T01:07:21.264Z,162.27
2024-05-09T01:08:21.558Z,160.81
2024-05-09T01:09:21.300Z,160.78
2024-05-09T01:10:27.751Z,161.91
2024-05-09T01:11:22.364Z,161.97
2024-05-09T01:12:21.455Z,162.04
2024-05-09T01:13:21.295Z,162.62
2024-05-09T01:14:21.326Z,162.61
2024-05-09T01:15:21.285Z,161.51
2024-05-09T01:16:21.281Z,161.67
2024-05-09T01:17:21.363Z,162.15
2024-05-09T01:18:21.432Z,163.54
2024-05-09T01:19:21.554Z,161.42
2024-05-09T01:21:21.339Z,162.21
2024-05-09T01:22:21.666Z,162.23
2024-05-09T01:23:21.341Z,162.12
2024-05-09T01:24:21.312Z,161.96
2024-05-09T01:25:21.308Z,162.10
2024-05-09T01:26:21.352Z,162.61
2024-05-09T01:27:21.368Z,160.80
2024-05-09T01:28:21.302Z,160.48
2024-05-09T01:29:21.352Z,161.66
2024-05-09T01:30:27.800Z,161.16
2024-05-09T01:31:22.315Z,161.30
2024-05-09T01:32:21.508Z,161.18
2024-05-09T01:33:21.485Z,161.50
2024-05-09T01:34:21.416Z,161.76
2024-05-09T01:35:21.404Z,161.08
2024-05-09T01:36:21.305Z,161.80
2024-05-09T01:37:21.659Z,159.78
2024-05-09T01:38:21.338Z,162.71
2024-05-09T01:39:21.328Z,160.89
2024-05-09T01:40:28.509Z,160.75
2024-05-09T01:41:22.353Z,160.83
2024-05-09T01:42:21.311Z,161.16
2024-05-09T01:43:21.321Z,161.15
2024-05-09T01:44:21.436Z,161.96
2024-05-09T01:45:21.362Z,160.85
2024-05-09T01:46:21.308Z,162.00
2024-05-09T01:47:21.453Z,160.82
2024-05-09T01:48:21.456Z,162.24
2024-05-09T01:49:21.499Z,160.69
2024-05-09T01:50:33.049Z,161.15
2024-05-09T01:51:22.351Z,161.21
2024-05-09T01:52:21.346Z,161.43
2024-05-09T01:53:21.387Z,161.46
2024-05-09T01:54:21.337Z,162.28
2024-05-09T01:55:21.331Z,161.85
2024-05-09T01:56:21.356Z,161.59
2024-05-09T01:57:21.702Z,162.45
2024-05-09T01:58:21.339Z,160.96
2024-05-09T01:59:21.459Z,162.85
2024-05-09T02:01:21.408Z,161.57
2024-05-09T02:02:21.508Z,161.40
2024-05-09T02:03:21.569Z,161.02
2024-05-09T02:04:21.536Z,161.33
2024-05-09T02:05:21.425Z,161.32
2024-05-09T02:06:21.366Z,160.90
2024-05-09T02:07:21.359Z,160.26
2024-05-09T02:08:21.978Z,161.53
2024-05-09T02:09:21.347Z,159.54
2024-05-09T02:10:26.402Z,160.45
2024-05-09T02:11:22.475Z,160.54
2024-05-09T02:12:21.468Z,160.75
2024-05-09T02:13:21.360Z,160.94
2024-05-09T02:14:21.402Z,161.66
2024-05-09T02:15:21.358Z,162.56
2024-05-09T02:16:21.364Z,161.86
2024-05-09T02:17:21.471Z,160.19
2024-05-09T02:18:21.440Z,161.38
2024-05-09T02:19:21.463Z,160.86
2024-05-09T02:20:29.782Z,159.08
2024-05-09T02:21:22.370Z,159.16
2024-05-09T02:22:21.389Z,159.68
2024-05-09T02:23:21.402Z,159.62
2024-05-09T02:24:21.366Z,161.77
2024-05-09T02:25:21.375Z,160.43
2024-05-09T02:26:21.442Z,161.07
2024-05-09T02:27:21.387Z,161.65
2024-05-09T02:28:21.398Z,161.73
2024-05-09T02:29:21.445Z,161.12
2024-05-09T02:30:26.372Z,160.73
2024-05-09T02:31:22.390Z,160.75
2024-05-09T02:32:21.798Z,160.96
2024-05-09T02:33:21.861Z,161.24
2024-05-09T02:34:21.475Z,161.18
2024-05-09T02:35:21.555Z,161.72
2024-05-09T02:36:21.398Z,162.83
2024-05-09T02:37:21.415Z,160.87
2024-05-09T02:38:21.531Z,161.29
2024-05-09T02:39:21.411Z,160.91
2024-05-09T02:40:25.762Z,159.72
2024-05-09T02:41:22.493Z,159.82
2024-05-09T02:42:21.446Z,160.09
2024-05-09T02:43:21.424Z,160.61
2024-05-09T02:44:21.460Z,161.00
2024-05-09T02:45:21.424Z,161.05
2024-05-09T02:46:21.437Z,161.86
2024-05-09T02:47:21.613Z,161.20
2024-05-09T02:48:21.669Z,161.93
2024-05-09T02:49:21.695Z,160.91
2024-05-09T02:51:21.412Z,161.04
2024-05-09T02:52:21.437Z,160.73
2024-05-09T02:53:21.508Z,160.47
2024-05-09T02:54:21.430Z,161.46
2024-05-09T02:55:21.417Z,159.99
2024-05-09T02:56:21.501Z,161.42
2024-05-09T02:57:21.446Z,161.12
2024-05-09T02:58:21.458Z,161.29
2024-05-09T02:59:21.718Z,160.26
2024-05-09T03:00:26.484Z,160.20
2024-05-09T03:01:22.512Z,160.27
2024-05-09T03:02:21.814Z,160.62
2024-05-09T03:03:21.690Z,160.99
2024-05-09T03:04:21.534Z,161.19
2024-05-09T03:05:21.492Z,160.70
2024-05-09T03:06:21.464Z,160.42
2024-05-09T03:07:21.471Z,160.70
2024-05-09T03:08:21.549Z,161.28
2024-05-09T03:09:21.454Z,159.89
2024-05-09T03:10:25.435Z,160.50
2024-05-09T03:11:22.557Z,160.57
2024-05-09T03:12:21.595Z,160.63
2024-05-09T03:13:21.460Z,161.02
2024-05-09T03:14:21.520Z,161.55
2024-05-09T03:15:21.472Z,162.14
2024-05-09T03:16:21.483Z,161.12
2024-05-09T03:17:21.587Z,160.55
2024-05-09T03:18:21.567Z,158.64
2024-05-09T03:19:21.685Z,160.72
2024-05-09T03:20:27.321Z,159.93
2024-05-09T03:21:22.486Z,160.02
2024-05-09T03:22:21.497Z,160.39
2024-05-09T03:23:21.516Z,160.47
2024-05-09T03:24:21.505Z,160.78
2024-05-09T03:25:21.499Z,161.14
2024-05-09T03:26:21.566Z,160.12
2024-05-09T03:27:21.509Z,160.41
2024-05-09T03:28:21.477Z,159.49
2024-05-09T03:29:21.610Z,161.10
2024-05-09T03:30:28.719Z,159.19
2024-05-09T03:31:22.516Z,159.32
2024-05-09T03:32:21.652Z,159.70
2024-05-09T03:33:21.993Z,160.30
2024-05-09T03:34:21.555Z,159.88
2024-05-09T03:35:21.611Z,161.97
2024-05-09T03:36:21.516Z,161.41
2024-05-09T03:37:21.532Z,160.68
2024-05-09T03:38:21.534Z,160.65
2024-05-09T03:39:21.496Z,159.48
2024-05-09T03:40:26.367Z,160.88
2024-05-09T03:41:22.674Z,160.93
2024-05-09T03:42:21.517Z,161.08
2024-05-09T03:43:21.534Z,161.42
2024-05-09T03:44:21.562Z,160.78
2024-05-09T03:45:21.551Z,160.61
2024-05-09T03:46:21.547Z,161.39
2024-05-09T03:47:21.778Z,161.13
2024-05-09T03:48:21.789Z,160.69
2024-05-09T03:49:21.811Z,161.05
2024-05-09T03:50:26.183Z,161.27
2024-05-09T03:51:22.551Z,161.32
2024-05-09T03:52:21.545Z,161.46
2024-05-09T03:53:21.544Z,161.40
2024-05-09T03:54:21.550Z,159.00
2024-05-09T03:55:21.543Z,160.67
2024-05-09T03:56:21.632Z,160.02
2024-05-09T03:57:21.563Z,161.92
2024-05-09T03:58:21.533Z,159.26
2024-05-09T03:59:21.587Z,161.42
2024-05-09T04:00:26.693Z,160.13
2024-05-09T04:01:22.615Z,160.19
2024-05-09T04:02:21.876Z,160.29
2024-05-09T04:03:21.708Z,160.51
2024-05-09T04:04:21.599Z,160.47
2024-05-09T04:05:21.610Z,160.30
2024-05-09T04:06:21.582Z,159.20
2024-05-09T04:07:21.549Z,160.35
2024-05-09T04:08:21.630Z,160.74
2024-05-09T04:09:21.567Z,160.23
2024-05-09T04:10:27.958Z,160.68
2024-05-09T04:11:22.689Z,160.80
2024-05-09T04:12:21.593Z,160.81
2024-05-09T04:13:21.564Z,160.97
2024-05-09T04:14:21.636Z,160.67
2024-05-09T04:15:21.589Z,160.41
2024-05-09T04:16:21.594Z,160.73
2024-05-09T04:17:21.609Z,159.09
2024-05-09T04:18:21.682Z,161.21
2024-05-09T04:19:21.767Z,159.89
2024-05-09T04:21:21.589Z,160.07
2024-05-09T04:22:21.586Z,160.09
2024-05-09T04:23:21.630Z,160.26
2024-05-09T04:24:21.601Z,159.93
2024-05-09T04:25:21.614Z,158.65
2024-05-09T04:26:21.748Z,158.89
2024-05-09T04:27:21.587Z,159.29
2024-05-09T04:28:21.581Z,159.20
2024-05-09T04:29:21.650Z,160.11
2024-05-09T04:30:30.633Z,160.50
2024-05-09T04:31:22.611Z,160.34
2024-05-09T04:32:21.777Z,160.25
2024-05-09T04:33:21.956Z,160.32
2024-05-09T04:34:21.753Z,160.09
2024-05-09T04:35:21.680Z,159.87
2024-05-09T04:36:21.612Z,160.23
2024-05-09T04:37:21.622Z,159.86
2024-05-09T04:38:21.653Z,160.79
2024-05-09T04:39:21.611Z,159.73
2024-05-09T04:40:28.536Z,159.79
2024-05-09T04:41:22.660Z,159.87
2024-05-09T04:42:21.621Z,159.88
2024-05-09T04:43:21.644Z,159.82
2024-05-09T04:44:21.658Z,160.52
2024-05-09T04:45:21.608Z,160.14
2024-05-09T04:46:29.428Z,50.00
2024-05-09T04:47:29.511Z,50.00
2024-05-09T04:48:29.544Z,50.00
2024-05-09T04:49:29.537Z,50.00
2024-05-09T04:50:35.856Z,50.00
2024-05-09T04:51:30.435Z,50.00
2024-05-09T04:52:29.423Z,50.00
2024-05-09T04:53:29.464Z,50.00
2024-05-09T04:54:35.859Z,50.00
2024-05-09T04:55:30.527Z,50.00
2024-05-09T04:56:29.514Z,50.00
2024-05-09T04:57:29.478Z,50.00
2024-05-09T04:58:29.464Z,50.00
2024-05-09T04:59:29.547Z,50.00
2024-05-09T05:00:35.657Z,50.43
2024-05-09T05:01:30.487Z,50.43
2024-05-09T05:02:29.539Z,47.12
2024-05-09T05:03:29.646Z,44.16
2024-05-09T05:04:29.489Z,39.96
2024-05-09T05:05:29.484Z,38.29
2024-05-09T05:06:29.488Z,50.87
2024-05-09T05:07:29.480Z,52.49
2024-05-09T05:08:29.502Z,50.53
2024-05-09T05:09:29.477Z,52.95
2024-05-09T05:10:35.497Z,50.40
2024-05-09T05:11:30.548Z,50.47
2024-05-09T05:12:29.581Z,50.77
2024-05-09T05:13:29.488Z,49.50
2024-05-09T05:14:29.514Z,48.01
2024-05-09T05:15:29.499Z,48.38
2024-05-09T05:16:29.482Z,50.00
2024-05-09T05:17:29.659Z,49.78
2024-05-09T05:18:29.730Z,50.40
2024-05-09T05:19:29.652Z,52.13
2024-05-09T05:20:33.576Z,51.38
2024-05-09T05:21:29.578Z,51.47
2024-05-09T05:22:29.500Z,49.67
2024-05-09T05:23:29.575Z,47.84
2024-05-09T05:24:29.518Z,48.70
2024-05-09T05:25:29.499Z,45.53
2024-05-09T05:26:29.587Z,50.00
2024-05-09T05:27:29.515Z,50.77
2024-05-09T05:28:29.482Z,52.09
2024-05-09T05:29:29.555Z,50.80
2024-05-09T05:30:34.462Z,52.93
2024-05-09T05:31:30.552Z,53.06
2024-05-09T05:32:29.601Z,51.50
2024-05-09T05:33:29.652Z,53.38
2024-05-09T05:34:29.526Z,49.78
2024-05-09T05:35:29.594Z,49.68
2024-05-09T05:36:29.509Z,51.59
2024-05-09T05:37:29.511Z,51.04
2024-05-09T05:38:29.524Z,52.74
2024-05-09T05:39:29.514Z,51.14
2024-05-09T05:40:36.166Z,51.94
2024-05-09T05:41:30.640Z,51.96
2024-05-09T05:42:29.504Z,52.22
2024-05-09T05:43:29.523Z,50.34
2024-05-09T05:44:29.656Z,49.50
2024-05-09T05:45:29.549Z,50.00
2024-05-09T05:46:29.547Z,53.49
2024-05-09T05:47:29.658Z,51.15
2024-05-09T05:48:29.637Z,52.34
2024-05-09T05:49:29.623Z,50.48
2024-05-09T05:50:35.522Z,51.28
2024-05-09T05:51:30.556Z,51.39
2024-05-09T05:52:29.546Z,51.71
2024-05-09T05:53:29.547Z,50.85
2024-05-09T05:54:29.578Z,51.45
2024-05-09T05:55:29.567Z,49.25
2024-05-09T05:56:29.573Z,50.34
2024-05-09T05:57:29.543Z,51.02
2024-05-09T05:58:29.532Z,51.76
2024-05-09T05:59:29.691Z,53.42
2024-05-09T06:00:36.986Z,50.20
2024-05-09T06:01:30.654Z,50.32
2024-05-09T06:02:29.567Z,50.44
2024-05-09T06:03:29.692Z,50.24
2024-05-09T06:04:29.665Z,47.03
2024-05-09T06:05:29.620Z,47.68
2024-05-09T06:06:29.570Z,51.60
2024-05-09T06:07:29.597Z,50.00
2024-05-09T06:08:30.551Z,51.85
2024-05-09T06:09:29.556Z,50.00
2024-05-09T06:10:35.229Z,53.14
2024-05-09T06:11:30.729Z,53.20
2024-05-09T06:12:29.643Z,53.15
2024-05-09T06:13:29.578Z,50.25
2024-05-09T06:14:29.749Z,48.22
2024-05-09T06:15:29.585Z,46.46
2024-05-09T06:16:29.599Z,52.85
2024-05-09T06:17:29.743Z,52.03
2024-05-09T06:18:29.904Z,52.10
2024-05-09T06:19:29.728Z,50.87
2024-05-09T06:20:35.347Z,51.02
2024-05-09T06:21:30.618Z,51.10
2024-05-09T06:22:29.618Z,49.35
2024-05-09T06:23:29.656Z,49.55
2024-05-09T06:24:29.588Z,49.10
2024-05-09T06:25:29.614Z,47.49
2024-05-09T06:26:29.648Z,51.07
2024-05-09T06:27:29.608Z,52.83
2024-05-09T06:28:29.609Z,50.02
2024-05-09T06:29:29.650Z,51.47
2024-05-09T06:30:37.174Z,50.05
2024-05-09T06:31:30.629Z,50.12
2024-05-09T06:32:29.721Z,50.37
2024-05-09T06:33:29.928Z,49.34
2024-05-09T06:34:29.772Z,49.60
2024-05-09T06:35:29.725Z,49.65
2024-05-09T06:36:29.598Z,50.38
2024-05-09T06:37:29.623Z,53.76
2024-05-09T06:38:29.654Z,51.56
2024-05-09T06:39:29.643Z,53.15
2024-05-09T06:40:36.538Z,53.93
2024-05-09T06:41:30.696Z,54.00
2024-05-09T06:42:29.611Z,53.16
2024-05-09T06:43:29.635Z,49.67
2024-05-09T06:44:29.676Z,50.71
2024-05-09T06:45:29.636Z,45.71
2024-05-09T06:46:29.640Z,51.54
2024-05-09T06:47:29.765Z,51.65
2024-05-09T06:48:29.787Z,52.94
2024-05-09T06:49:29.807Z,50.88
2024-05-09T06:50:35.774Z,50.16
2024-05-09T06:51:30.669Z,50.23
2024-05-09T06:52:29.651Z,47.22
2024-05-09T06:53:29.741Z,49.16
2024-05-09T06:54:29.667Z,45.97
2024-05-09T06:55:29.670Z,44.75
2024-05-09T06:56:29.772Z,50.26
2024-05-09T06:57:29.656Z,52.98
2024-05-09T06:58:29.658Z,51.51
2024-05-09T06:59:29.789Z,50.29
2024-05-09T07:00:35.957Z,50.00
2024-05-09T07:01:30.701Z,50.14
2024-05-09T07:02:29.711Z,48.18
2024-05-09T07:03:29.873Z,49.46
2024-05-09T07:04:29.777Z,48.83
2024-05-09T07:05:29.811Z,49.45
2024-05-09T07:06:29.679Z,51.67
2024-05-09T07:07:29.675Z,50.00
2024-05-09T07:08:29.725Z,51.10
2024-05-09T07:09:29.764Z,50.00
2024-05-09T07:10:34.814Z,53.41
2024-05-09T07:11:30.885Z,53.44
2024-05-09T07:12:29.908Z,53.54
2024-05-09T07:13:29.839Z,53.50
2024-05-09T07:14:29.993Z,51.34
2024-05-09T07:15:29.852Z,50.37
2024-05-09T07:16:29.836Z,50.00
2024-05-09T07:17:29.999Z,50.58
2024-05-09T07:18:30.001Z,50.56
2024-05-09T07:19:29.941Z,52.09
2024-05-09T07:20:34.504Z,50.16
2024-05-09T07:21:30.895Z,50.22
2024-05-09T07:22:29.945Z,49.95
2024-05-09T07:23:29.951Z,46.67
2024-05-09T07:24:29.919Z,46.87
2024-05-09T07:25:30.342Z,47.10
2024-05-09T07:26:29.994Z,51.08
2024-05-09T07:27:29.932Z,50.34
2024-05-09T07:28:29.972Z,50.82
2024-05-09T07:29:30.067Z,50.72
2024-05-09T07:30:33.393Z,52.02
2024-05-09T07:31:30.093Z,52.03
2024-05-09T07:32:30.269Z,51.08
2024-05-09T07:33:30.198Z,48.45
2024-05-09T07:34:30.197Z,45.45
2024-05-09T07:35:30.571Z,43.31
2024-05-09T07:36:30.111Z,53.27
2024-05-09T07:37:30.121Z,51.42
2024-05-09T07:38:30.120Z,53.35
2024-05-09T07:39:30.115Z,50.36
2024-05-09T07:40:35.647Z,50.00
2024-05-09T07:41:31.144Z,50.04
2024-05-09T07:42:30.123Z,49.75
2024-05-09T07:43:30.108Z,47.55
2024-05-09T07:44:30.222Z,45.44
2024-05-09T07:45:46.553Z,45.71
2024-05-09T07:47:37.078Z,46.61
2024-05-09T07:48:57.324Z,44.26
2024-05-09T07:50:01.261Z,47.01
2024-05-09T07:53:08.574Z,43.49
2024-05-09T07:53:32.667Z,48.39
2024-05-09T07:53:40.553Z,44.77
2024-05-09T07:54:31.253Z,47.16
2024-05-09T07:55:30.449Z,43.81
2024-05-09T07:56:30.747Z,39.54
2024-05-09T07:57:30.211Z,35.50
2024-05-09T07:58:30.162Z,35.37
2024-05-09T07:59:31.914Z,50.00
2024-05-09T08:00:31.854Z,50.06
2024-05-09T08:01:30.207Z,50.01
2024-05-09T08:02:30.268Z,50.01
2024-05-09T08:03:30.412Z,47.08
2024-05-09T08:04:30.380Z,46.27
2024-05-09T08:05:30.308Z,47.81
2024-05-09T08:06:30.261Z,51.67
2024-05-09T08:07:30.281Z,50.97
2024-05-09T08:08:30.323Z,51.70
2024-05-09T08:09:30.456Z,53.57
2024-05-09T08:10:30.519Z,50.91
2024-05-09T08:11:30.642Z,52.78
2024-05-09T08:12:30.599Z,53.67
2024-05-09T08:13:30.625Z,53.36
2024-05-09T08:14:30.665Z,53.70
2024-05-09T08:15:30.809Z,51.65
2024-05-09T08:16:30.863Z,50.20
2024-05-09T08:17:30.965Z,51.22
2024-05-09T08:18:31.216Z,52.35
2024-05-09T08:19:31.050Z,50.00
2024-05-09T08:20:35.073Z,52.02
2024-05-09T08:21:31.191Z,52.06
2024-05-09T08:22:31.069Z,52.13
2024-05-09T08:23:31.073Z,52.18
2024-05-09T08:24:31.120Z,48.35
2024-05-09T08:25:31.085Z,48.24
2024-05-09T08:26:31.071Z,49.80
2024-05-09T08:27:31.106Z,52.00
2024-05-09T08:28:31.080Z,51.69
2024-05-09T08:29:31.078Z,51.90
2024-05-09T08:30:36.536Z,50.98
2024-05-09T08:31:32.223Z,51.01
2024-05-09T08:32:31.202Z,51.22
2024-05-09T08:33:31.322Z,49.93
2024-05-09T08:34:31.175Z,49.50
2024-05-09T08:35:31.105Z,49.31
2024-05-09T08:36:31.171Z,51.31
2024-05-09T08:37:36.710Z,50.88
2024-05-09T08:38:32.098Z,50.98
2024-05-09T08:39:31.158Z,51.14
2024-05-09T08:40:35.245Z,51.34
2024-05-09T08:41:32.103Z,50.98
2024-05-09T08:42:31.133Z,50.27
2024-05-09T08:43:31.167Z,50.91
2024-05-09T08:44:31.116Z,49.95
2024-05-09T08:45:31.319Z,45.87
2024-05-09T08:46:31.152Z,50.86
2024-05-09T08:47:31.185Z,53.30
2024-05-09T08:48:31.368Z,51.14
2024-05-09T08:49:31.192Z,50.60
2024-05-09T08:50:37.926Z,52.00
2024-05-09T08:51:32.190Z,51.93
2024-05-09T08:52:31.126Z,49.09
2024-05-09T08:53:31.111Z,51.20
2024-05-09T08:54:31.183Z,48.20
2024-05-09T08:55:31.138Z,47.17
2024-05-09T08:56:31.149Z,51.41
2024-05-09T08:57:31.157Z,52.06
2024-05-09T08:58:31.139Z,52.39
2024-05-09T08:59:31.146Z,54.13
2024-05-09T09:00:36.601Z,54.13
2024-05-09T09:01:32.339Z,54.14
2024-05-09T09:02:31.327Z,53.95
2024-05-09T09:03:31.899Z,54.24
2024-05-09T09:04:31.299Z,50.96
2024-05-09T09:05:31.656Z,49.30
2024-05-09T09:06:31.271Z,52.03
2024-05-09T09:07:31.217Z,52.34
2024-05-09T09:08:31.224Z,54.74
2024-05-09T09:09:31.229Z,52.98
2024-05-09T09:10:32.718Z,50.00
2024-05-09T09:11:31.326Z,52.45
2024-05-09T09:12:31.401Z,50.85
2024-05-09T09:13:31.640Z,52.87
2024-05-09T09:14:31.394Z,50.33
2024-05-09T09:15:31.543Z,53.20
2024-05-09T09:16:31.538Z,50.78
2024-05-09T09:17:31.693Z,50.00
2024-05-09T09:18:31.964Z,51.75
2024-05-09T09:19:31.806Z,51.64
2024-05-09T09:20:36.324Z,50.29
2024-05-09T09:21:32.807Z,50.36
2024-05-09T09:22:31.768Z,50.53
2024-05-09T09:23:31.890Z,49.91
2024-05-09T09:24:31.820Z,49.56
2024-05-09T09:25:32.010Z,49.68
2024-05-09T09:26:31.761Z,50.00
2024-05-09T09:27:31.828Z,52.50
2024-05-09T09:28:31.780Z,52.65
2024-05-09T09:29:31.802Z,52.19
2024-05-09T09:30:36.899Z,52.79
2024-05-09T09:31:33.139Z,52.47
2024-05-09T09:32:31.901Z,51.47
2024-05-09T09:33:32.427Z,49.47
2024-05-09T09:34:32.073Z,49.63
2024-05-09T09:35:31.853Z,47.24
2024-05-09T09:36:31.938Z,51.24
2024-05-09T09:37:31.863Z,50.84
2024-05-09T09:38:31.931Z,51.87
2024-05-09T09:39:31.948Z,50.38
2024-05-09T09:40:34.026Z,51.94
2024-05-09T09:41:31.984Z,51.97
2024-05-09T09:42:31.986Z,51.18
2024-05-09T09:43:31.991Z,45.72
2024-05-09T09:45:32.008Z,47.95
2024-05-09T09:46:32.069Z,50.74
2024-05-09T09:47:32.093Z,50.97
2024-05-09T09:48:32.174Z,50.00
2024-05-09T09:49:32.038Z,54.03
2024-05-09T09:50:34.734Z,52.35
2024-05-09T09:51:32.040Z,50.89
2024-05-09T09:52:32.040Z,50.00
2024-05-09T09:53:32.028Z,52.63
2024-05-09T09:54:32.066Z,51.37
2024-05-09T09:55:32.015Z,54.26
2024-05-09T09:56:32.032Z,54.00
2024-05-09T09:57:32.034Z,56.02
2024-05-09T09:58:32.032Z,52.35
2024-05-09T09:59:31.991Z,54.95
2024-05-09T10:00:33.442Z,53.16
2024-05-09T10:01:32.086Z,52.89
2024-05-09T10:02:32.178Z,51.60
2024-05-09T10:03:32.226Z,50.96
2024-05-09T10:04:32.140Z,50.06
2024-05-09T10:05:32.206Z,50.67
2024-05-09T10:06:32.050Z,50.52
2024-05-09T10:07:32.015Z,52.49
2024-05-09T10:08:32.022Z,52.05
2024-05-09T10:09:32.142Z,50.58
2024-05-09T10:10:33.251Z,50.10
2024-05-09T10:11:34.879Z,50.43
2024-05-09T10:12:32.262Z,50.44
2024-05-09T10:13:32.268Z,50.45
2024-05-09T10:14:32.238Z,51.09
2024-05-09T10:15:32.262Z,52.53
2024-05-09T10:16:32.251Z,55.18
2024-05-09T10:17:32.349Z,52.51
2024-05-09T10:18:34.291Z,52.82
2024-05-09T10:19:32.314Z,51.52
2024-05-09T10:20:32.921Z,51.33
2024-05-09T10:21:32.448Z,52.40
2024-05-09T10:22:32.468Z,50.00
2024-05-09T10:23:32.726Z,50.07
2024-05-09T10:24:32.628Z,51.10
2024-05-09T10:25:32.748Z,50.42
2024-05-09T10:26:33.672Z,53.26
2024-05-09T10:27:32.864Z,52.66
2024-05-09T10:28:32.936Z,50.26
2024-05-09T10:29:32.923Z,50.86
2024-05-09T10:30:36.191Z,52.77
2024-05-09T10:31:32.983Z,51.50
2024-05-09T10:32:33.137Z,50.06
2024-05-09T10:33:33.111Z,50.00
2024-05-09T10:34:33.077Z,50.08
2024-05-09T10:35:32.986Z,52.09
2024-05-09T10:36:32.987Z,51.67
2024-05-09T10:37:33.058Z,51.42
2024-05-09T10:38:33.000Z,53.62
2024-05-09T10:39:33.051Z,50.00
2024-05-09T10:40:33.124Z,51.03
2024-05-09T10:41:32.973Z,50.98
2024-05-09T10:42:33.005Z,52.61
2024-05-09T10:43:32.987Z,53.33
2024-05-09T10:44:32.966Z,52.29
2024-05-09T10:45:33.015Z,54.56
2024-05-09T10:46:33.006Z,52.01
2024-05-09T10:47:33.066Z,52.16
2024-05-09T10:48:33.082Z,54.08
2024-05-09T10:49:33.020Z,51.81
2024-05-09T10:50:34.523Z,52.58
2024-05-09T10:51:33.022Z,51.67
2024-05-09T10:52:32.998Z,54.58
2024-05-09T10:53:33.016Z,52.81
2024-05-09T10:54:33.043Z,51.72
2024-05-09T10:55:33.009Z,52.59
2024-05-09T10:56:32.995Z,53.41
2024-05-09T10:57:33.095Z,50.29
2024-05-09T10:58:33.046Z,50.00
2024-05-09T10:59:33.121Z,53.54
2024-05-09T11:00:35.987Z,50.76
2024-05-09T11:01:33.185Z,54.97
2024-05-09T11:02:33.371Z,50.68
2024-05-09T11:03:33.263Z,53.02
2024-05-09T11:04:33.227Z,51.19
2024-05-09T11:05:33.258Z,50.00
2024-05-09T11:06:33.180Z,53.54
2024-05-09T11:07:33.193Z,52.18
2024-05-09T11:08:33.159Z,52.34
2024-05-09T11:09:33.191Z,52.10
2024-05-09T11:10:34.432Z,53.97
2024-05-09T11:11:33.171Z,52.74
2024-05-09T11:12:33.169Z,52.47
2024-05-09T11:13:33.194Z,51.12
2024-05-09T11:14:33.174Z,50.00
2024-05-09T11:15:33.202Z,51.84
2024-05-09T11:16:33.160Z,51.02
2024-05-09T11:17:33.267Z,54.81
2024-05-09T11:18:36.707Z,50.33
2024-05-09T11:19:34.337Z,50.51
2024-05-09T11:20:35.215Z,50.48
2024-05-09T11:21:33.245Z,50.39
2024-05-09T11:22:33.198Z,51.96
2024-05-09T11:23:33.273Z,50.86
2024-05-09T11:24:33.349Z,53.94
2024-05-09T11:25:33.381Z,52.92
2024-05-09T11:26:33.464Z,50.17
2024-05-09T11:27:33.548Z,50.00
2024-05-09T11:28:33.610Z,54.62
2024-05-09T11:29:33.652Z,52.46
2024-05-09T11:30:33.840Z,52.37
2024-05-09T11:31:34.006Z,53.95
2024-05-09T11:32:34.059Z,56.02
2024-05-09T11:33:34.022Z,55.23
2024-05-09T11:34:34.045Z,58.00
2024-05-09T11:35:34.074Z,58.95
2024-05-09T11:36:34.113Z,58.77
2024-05-09T11:37:36.068Z,58.49
2024-05-09T11:38:34.212Z,60.56
2024-05-09T11:39:34.182Z,61.29
2024-05-09T11:40:34.839Z,62.00
2024-05-09T11:41:34.171Z,64.89
2024-05-09T11:42:34.153Z,64.09
2024-05-09T11:43:34.229Z,67.95
2024-05-09T11:44:34.161Z,69.36
2024-05-09T11:45:34.327Z,71.62
2024-05-09T11:46:34.167Z,72.75
2024-05-09T11:47:34.318Z,70.79
2024-05-09T11:48:34.496Z,71.50
2024-05-09T11:49:34.274Z,70.33
2024-05-09T11:50:35.972Z,69.27
2024-05-09T11:51:34.250Z,69.28
2024-05-09T11:52:34.165Z,69.65
2024-05-09T11:53:34.194Z,67.48
2024-05-09T11:54:34.229Z,67.26
2024-05-09T11:55:34.303Z,69.93
2024-05-09T11:56:34.317Z,66.52
2024-05-09T11:57:34.312Z,64.58
2024-05-09T11:58:34.429Z,64.82
2024-05-09T11:59:34.398Z,65.88
2024-05-09T12:00:37.289Z,63.48
2024-05-09T12:01:34.510Z,63.97
2024-05-09T12:02:34.556Z,61.25
2024-05-09T12:03:34.628Z,59.54
2024-05-09T12:04:34.569Z,61.13
2024-05-09T12:05:34.857Z,58.33
2024-05-09T12:06:34.550Z,54.92
2024-05-09T12:07:34.450Z,55.53
2024-05-09T12:08:34.458Z,53.95
2024-05-09T12:09:34.515Z,54.38
2024-05-09T12:10:36.204Z,53.34
2024-05-09T12:11:34.642Z,52.13
2024-05-09T12:12:37.099Z,52.20
2024-05-09T12:13:34.618Z,50.00
2024-05-09T12:14:34.545Z,52.23
2024-05-09T12:15:34.600Z,52.95
2024-05-09T12:16:34.712Z,51.39
2024-05-09T12:17:34.698Z,50.00
2024-05-09T12:18:34.700Z,52.66
2024-05-09T12:19:34.707Z,52.24
2024-05-09T12:20:37.832Z,50.00
2024-05-09T12:21:35.615Z,50.11
2024-05-09T12:22:34.593Z,50.12
2024-05-09T12:23:34.605Z,49.79
2024-05-09T12:24:34.635Z,47.52
2024-05-09T12:25:34.614Z,44.34
2024-05-09T12:26:34.586Z,50.65
2024-05-09T12:27:34.622Z,52.53
2024-05-09T12:28:34.606Z,53.26
2024-05-09T12:29:36.253Z,53.02
2024-05-09T12:30:38.451Z,52.33
2024-05-09T12:31:35.681Z,52.35
2024-05-09T12:32:34.658Z,50.10
2024-05-09T12:33:34.744Z,49.95
2024-05-09T12:34:34.741Z,48.06
2024-05-09T12:35:34.632Z,46.76
2024-05-09T12:36:34.727Z,50.11
2024-05-09T12:37:34.628Z,50.00
2024-05-09T12:38:34.641Z,53.36
2024-05-09T12:39:34.668Z,53.85
2024-05-09T12:40:37.720Z,52.37
2024-05-09T12:41:35.206Z,52.39
2024-05-09T12:42:34.674Z,51.82
2024-05-09T12:43:34.709Z,52.27
2024-05-09T12:44:34.625Z,52.89
2024-05-09T12:45:34.650Z,53.54
2024-05-09T12:46:34.669Z,51.33
2024-05-09T12:47:34.733Z,52.93
2024-05-09T12:48:34.800Z,51.87
2024-05-09T12:49:35.018Z,52.05
2024-05-09T12:50:35.082Z,50.85